createdAt,value
2018-12-10T03:35:24.321Z,17.70
2018-12-10T03:37:52.548Z,17.90
2018-12-10T03:40:20.782Z,17.70
2018-12-10T03:42:49.097Z,17.07
2018-12-10T03:45:17.465Z,18.60
2018-12-10T03:47:45.680Z,17.50
2018-12-10T03:50:13.941Z,17.73
2018-12-10T03:52:42.140Z,16.90
2018-12-10T03:55:10.378Z,16.97
2018-12-10T03:57:38.800Z,17.20
2018-12-10T04:00:07.346Z,16.30
2018-12-10T04:02:35.573Z,16.90
2018-12-10T04:05:04.021Z,18.20
2018-12-10T04:07:32.232Z,17.47
2018-12-10T04:10:00.438Z,18.77
2018-12-10T04:12:28.709Z,18.83
2018-12-10T04:14:56.924Z,17.87
2018-12-10T04:17:25.137Z,18.33
2018-12-10T04:19:53.358Z,18.67
2018-12-10T04:22:21.566Z,19.07
2018-12-10T04:24:49.800Z,19.50
2018-12-10T04:27:18.043Z,18.00
2018-12-10T04:29:46.250Z,18.83
2018-12-10T04:32:14.441Z,17.23
2018-12-10T04:34:42.668Z,17.17
2018-12-10T04:37:10.902Z,17.93
2018-12-10T04:39:39.101Z,18.00
2018-12-10T04:42:07.351Z,16.90
2018-12-10T04:44:35.689Z,16.23
2018-12-10T04:47:04.009Z,18.40
2018-12-10T04:49:32.237Z,18.00
2018-12-10T04:52:00.495Z,17.50
2018-12-10T04:54:28.709Z,17.20
2018-12-10T04:56:57.025Z,16.97
2018-12-10T04:59:25.237Z,16.67
2018-12-10T05:01:53.620Z,17.80
2018-12-10T05:04:21.932Z,17.00
2018-12-10T05:06:50.148Z,17.10
2018-12-10T05:09:18.404Z,18.00
2018-12-10T05:11:46.630Z,17.60
2018-12-10T05:14:14.864Z,17.70
2018-12-10T05:16:43.227Z,17.63
2018-12-10T05:19:11.446Z,17.40
2018-12-10T05:21:39.648Z,16.93
2018-12-10T05:24:07.896Z,17.93
2018-12-10T05:26:36.100Z,17.63
2018-12-10T05:29:04.404Z,17.20
2018-12-10T05:31:32.672Z,17.33
2018-12-10T05:34:00.912Z,17.00
2018-12-10T05:36:29.113Z,16.90
2018-12-10T05:38:57.326Z,18.20
2018-12-10T05:41:25.572Z,18.13
2018-12-10T05:43:53.853Z,16.73
2018-12-10T05:46:22.057Z,16.87
2018-12-10T05:48:50.290Z,15.50
2018-12-10T05:51:18.521Z,15.20
2018-12-10T05:53:46.723Z,15.67
2018-12-10T05:56:14.915Z,15.80
2018-12-10T05:58:43.181Z,15.37
2018-12-10T06:01:11.445Z,15.30
2018-12-10T06:03:39.664Z,15.60
2018-12-10T06:06:07.893Z,15.93
2018-12-10T06:08:36.092Z,19.00
2018-12-10T06:11:04.342Z,18.07
2018-12-10T06:13:32.544Z,17.43
2018-12-10T06:16:00.764Z,16.53
2018-12-10T06:18:29.632Z,16.60
2018-12-10T06:20:58.200Z,16.77
2018-12-10T06:23:26.536Z,16.93
2018-12-10T06:25:54.760Z,17.20
2018-12-10T06:28:22.976Z,17.80
2018-12-10T06:30:51.195Z,17.50
2018-12-10T06:33:19.442Z,16.90
2018-12-10T06:35:47.704Z,17.97
2018-12-10T06:38:15.912Z,17.83
2018-12-10T06:40:44.132Z,16.13
2018-12-10T06:43:12.565Z,16.50
2018-12-10T06:45:40.817Z,17.73
2018-12-10T10:43:20.821Z,14.73
2018-12-10T10:45:49.125Z,14.60
2018-12-10T10:48:17.452Z,14.60
2018-12-10T10:50:45.743Z,14.80
2018-12-10T10:53:13.924Z,14.27
2018-12-10T10:55:42.173Z,13.33
2018-12-10T10:58:10.360Z,14.50
2018-12-10T11:00:44.008Z,13.70
2018-12-10T11:03:21.366Z,13.30
2018-12-10T11:05:49.572Z,13.80
2018-12-10T11:08:17.820Z,13.40
2018-12-10T11:10:46.028Z,13.90
2018-12-10T11:13:14.273Z,13.10
2018-12-10T11:15:42.492Z,13.20
2018-12-10T11:18:10.896Z,14.27
2018-12-10T11:20:39.168Z,14.23
2018-12-10T11:23:07.552Z,14.63
2018-12-10T11:25:35.760Z,14.60
2018-12-10T11:28:04.076Z,15.73
2018-12-10T11:30:32.421Z,14.67
2018-12-10T11:33:00.644Z,15.23
2018-12-10T11:35:29.048Z,14.80
2018-12-10T11:37:57.277Z,14.50
2018-12-10T11:40:25.495Z,14.37
2018-12-10T11:42:53.684Z,15.00
2018-12-10T11:45:22.223Z,14.50
2018-12-10T11:47:50.474Z,14.97
2018-12-10T11:50:18.929Z,13.77
2018-12-10T11:52:47.255Z,15.90
2018-12-10T11:55:15.512Z,14.00
2018-12-10T11:57:43.728Z,14.17
2018-12-10T12:00:12.280Z,14.10
2018-12-10T12:02:40.580Z,15.53
2018-12-10T12:05:08.874Z,15.13
2018-12-10T12:07:37.159Z,15.00
2018-12-10T12:10:07.153Z,16.20
2018-12-10T12:12:35.489Z,15.73
2018-12-10T12:15:03.838Z,15.27
2018-12-10T12:17:32.121Z,14.40
2018-12-10T12:20:00.400Z,15.30
2018-12-10T12:22:28.679Z,15.13
2018-12-10T12:24:56.938Z,15.00
2018-12-10T12:27:25.140Z,16.17
2018-12-10T12:29:53.376Z,14.30
2018-12-10T12:32:21.641Z,15.07
2018-12-10T12:34:49.875Z,15.07
2018-12-10T12:37:18.073Z,15.00
2018-12-10T12:39:46.300Z,16.00
2018-12-10T12:42:14.493Z,15.10
2018-12-10T12:44:42.741Z,14.13
2018-12-10T12:47:10.988Z,13.70
2018-12-10T12:49:39.188Z,14.10
2018-12-10T12:52:07.492Z,14.27
2018-12-10T12:54:35.851Z,13.70
2018-12-10T12:57:04.391Z,13.70
2018-12-10T12:59:32.626Z,14.03
2018-12-10T13:02:00.829Z,14.30
2018-12-10T13:04:33.014Z,15.57
2018-12-10T13:07:01.909Z,15.77
2018-12-10T13:09:30.096Z,15.27
2018-12-10T13:11:58.352Z,16.30
2018-12-10T13:14:26.544Z,14.67
2018-12-10T13:16:54.779Z,16.13
2018-12-10T13:19:23.013Z,15.70
2018-12-10T13:21:51.208Z,15.27
2018-12-10T13:24:19.493Z,16.23
2018-12-10T13:26:48.106Z,15.20
2018-12-10T13:29:16.457Z,15.33
2018-12-10T13:31:44.876Z,15.40
2018-12-10T13:34:13.076Z,17.80
2018-12-10T13:36:41.336Z,17.23
2018-12-10T13:39:09.532Z,14.93
2018-12-10T13:41:37.764Z,15.77
2018-12-10T13:44:06.052Z,19.10
2018-12-10T13:46:34.254Z,15.83
2018-12-10T13:49:02.496Z,16.23
2018-12-10T13:51:30.841Z,16.17
2018-12-10T13:53:59.070Z,17.70
2018-12-10T13:56:27.431Z,17.23
2018-12-10T13:58:55.660Z,16.40
2018-12-10T14:01:23.921Z,15.53
2018-12-10T14:03:52.149Z,15.70
2018-12-10T14:06:20.381Z,15.70
2018-12-10T14:08:48.676Z,15.53
2018-12-10T14:11:16.918Z,17.30
2018-12-10T14:13:45.230Z,15.63
2018-12-10T14:16:13.505Z,17.73
2018-12-10T14:18:41.724Z,15.70
2018-12-10T14:21:10.086Z,15.50
2018-12-10T14:23:38.361Z,16.03
2018-12-10T14:26:06.559Z,16.10
2018-12-10T14:28:34.757Z,15.80
2018-12-10T14:31:03.785Z,15.33
2018-12-10T14:33:32.129Z,16.13
2018-12-10T14:36:00.369Z,15.40
2018-12-10T14:38:28.566Z,15.63
2018-12-10T14:40:56.967Z,17.40
2018-12-10T14:43:25.157Z,16.67
2018-12-10T14:45:53.495Z,15.47
2018-12-10T14:48:21.689Z,17.73
2018-12-10T14:50:49.928Z,19.30
2018-12-10T14:53:18.237Z,16.37
2018-12-10T14:55:46.512Z,16.50
2018-12-10T14:58:14.893Z,16.67
2018-12-10T15:00:43.103Z,16.47
2018-12-10T15:03:11.356Z,16.50
2018-12-10T15:05:39.561Z,17.60
2018-12-10T15:08:07.764Z,16.77
2018-12-10T15:10:35.996Z,17.20
2018-12-10T15:13:04.193Z,16.77
2018-12-10T15:15:32.471Z,16.50
2018-12-10T15:18:00.794Z,18.47
2018-12-10T15:20:29.161Z,16.80
2018-12-10T15:22:57.354Z,16.67
2018-12-10T15:25:25.564Z,16.50
2018-12-10T15:27:53.799Z,16.40
2018-12-10T15:30:22.208Z,17.60
2018-12-10T15:32:50.464Z,17.23
2018-12-10T15:35:18.661Z,15.90
2018-12-10T15:37:46.967Z,16.57
2018-12-10T15:40:15.214Z,16.63
2018-12-10T15:42:43.461Z,18.50
2018-12-10T15:45:11.674Z,16.93
2018-12-10T15:47:39.884Z,17.83
2018-12-10T15:50:08.109Z,17.27
2018-12-10T15:52:36.470Z,17.50
2018-12-10T15:55:05.105Z,17.73
2018-12-10T15:57:33.300Z,18.23
2018-12-10T16:00:01.692Z,17.10
2018-12-10T16:02:29.983Z,18.10
2018-12-10T16:04:58.221Z,19.10
2018-12-10T16:07:26.624Z,20.00
2018-12-10T16:09:54.820Z,19.00
2018-12-10T16:12:23.059Z,18.10
2018-12-10T16:14:51.281Z,18.37
2018-12-10T16:17:19.637Z,18.37
2018-12-10T16:19:47.940Z,19.97
2018-12-10T16:22:16.252Z,17.03
2018-12-10T16:24:44.501Z,18.40
2018-12-10T16:27:13.029Z,17.00
2018-12-10T16:29:41.305Z,17.50
2018-12-10T16:32:09.566Z,16.90
2018-12-10T16:34:37.770Z,19.90
2018-12-10T16:37:06.110Z,19.37
2018-12-10T16:39:34.452Z,17.90
2018-12-10T16:42:02.684Z,19.60
2018-12-10T16:44:31.036Z,18.57
2018-12-10T16:46:59.236Z,18.97
2018-12-10T16:49:27.576Z,17.13
2018-12-10T16:51:55.880Z,19.53
2018-12-10T16:54:24.079Z,18.43
2018-12-10T16:56:52.432Z,17.40
2018-12-10T16:59:20.635Z,16.70
2018-12-10T17:01:48.831Z,19.10
2018-12-10T17:04:17.080Z,16.70
2018-12-10T17:06:45.336Z,18.40
2018-12-10T17:09:13.847Z,17.47
2018-12-10T17:11:42.356Z,19.33
2018-12-10T17:14:10.980Z,18.23
2018-12-10T17:16:39.668Z,17.40
2018-12-10T17:19:07.908Z,18.70
2018-12-10T17:21:36.285Z,17.70
2018-12-10T17:24:04.569Z,17.33
2018-12-10T17:26:32.861Z,16.50
2018-12-10T17:29:01.159Z,18.97
2018-12-10T17:31:29.489Z,16.60
2018-12-10T17:33:57.760Z,16.30
2018-12-10T17:36:26.196Z,15.93
2018-12-10T17:38:54.448Z,16.57
2018-12-10T17:41:22.826Z,16.30
2018-12-10T17:43:51.106Z,16.60
2018-12-10T17:46:19.407Z,17.50
2018-12-10T17:48:47.621Z,16.70
2018-12-10T17:51:15.860Z,18.83
2018-12-10T17:53:44.424Z,17.10
2018-12-10T17:56:12.740Z,17.23
2018-12-10T17:58:41.040Z,16.47
2018-12-10T18:01:09.384Z,16.50
2018-12-10T18:03:37.580Z,18.40
2018-12-10T18:06:06.790Z,19.10
2018-12-10T18:08:35.008Z,17.77
2018-12-10T18:11:03.244Z,17.97
2018-12-10T18:13:31.483Z,20.10
2018-12-10T18:15:59.697Z,18.30
2018-12-10T18:18:27.913Z,18.50
2018-12-10T18:20:56.152Z,19.93
2018-12-10T18:23:24.352Z,21.03
2018-12-10T18:25:52.624Z,18.73
2018-12-10T18:28:20.920Z,18.10
2018-12-10T18:30:49.449Z,17.47
2018-12-10T18:33:17.737Z,18.50
2018-12-10T18:35:45.931Z,19.57
2018-12-10T18:38:14.284Z,17.73
2018-12-10T18:40:42.497Z,19.33
2018-12-10T18:43:10.844Z,18.33
2018-12-10T18:45:39.086Z,17.00
2018-12-10T18:48:07.368Z,17.93
2018-12-10T18:50:35.608Z,17.37
2018-12-10T18:53:03.949Z,17.60
2018-12-10T18:55:32.160Z,18.17
2018-12-10T18:58:00.492Z,17.47
2018-12-10T19:00:28.759Z,17.27
2018-12-10T19:02:56.960Z,20.67
2018-12-10T19:05:28.344Z,19.20
2018-12-10T19:07:56.741Z,17.43
2018-12-10T19:10:25.056Z,18.37
2018-12-10T19:12:53.424Z,18.27
2018-12-10T19:15:21.677Z,17.50
2018-12-10T19:17:49.912Z,18.33
2018-12-10T19:20:18.188Z,17.20
2018-12-10T19:22:46.436Z,18.30
2018-12-10T19:25:14.676Z,17.90
2018-12-10T19:27:42.872Z,19.20
2018-12-10T19:30:11.128Z,18.30
2018-12-10T19:32:39.374Z,19.20
2018-12-10T19:35:08.250Z,19.00
2018-12-10T19:37:36.448Z,18.60
2018-12-10T19:40:05.800Z,18.50
2018-12-10T19:42:33.996Z,18.00
2018-12-10T19:45:02.310Z,17.60
2018-12-10T19:47:30.571Z,19.20
2018-12-10T19:49:58.956Z,19.47
2018-12-10T19:52:27.370Z,17.63
2018-12-10T19:54:55.793Z,18.03
2018-12-10T19:57:23.996Z,19.10
2018-12-10T19:59:52.183Z,18.83
2018-12-10T20:02:20.684Z,18.30
2018-12-10T20:04:48.880Z,17.80
2018-12-10T20:07:17.233Z,18.60
2018-12-10T20:09:45.521Z,17.80
2018-12-10T20:12:13.768Z,18.27
2018-12-10T20:14:41.963Z,17.93
2018-12-10T20:17:10.231Z,19.23
2018-12-10T20:19:38.426Z,18.43
2018-12-10T20:22:06.691Z,17.50
2018-12-10T20:24:35.180Z,18.63
2018-12-10T20:27:03.457Z,20.13
2018-12-10T20:29:31.657Z,17.90
2018-12-10T20:31:59.865Z,20.90
2018-12-10T20:34:28.124Z,19.87
2018-12-10T20:36:56.325Z,18.80
2018-12-10T20:39:24.612Z,18.70
2018-12-10T20:41:52.843Z,19.40
2018-12-10T20:44:21.073Z,18.77
2018-12-10T20:46:49.300Z,18.43
2018-12-10T20:49:17.537Z,19.67
2018-12-10T20:51:45.776Z,21.27
2018-12-10T20:54:14.014Z,19.17
2018-12-10T20:56:42.322Z,20.40
2018-12-10T20:59:10.565Z,19.70
2018-12-10T21:01:38.807Z,19.87
2018-12-10T21:04:07.156Z,18.00
2018-12-10T21:06:37.162Z,19.03
2018-12-10T21:09:08.117Z,19.27
2018-12-10T21:11:36.480Z,21.10
2018-12-10T21:14:04.956Z,18.80
2018-12-10T21:16:33.161Z,19.80
2018-12-10T21:19:01.469Z,19.33
2018-12-10T21:21:29.676Z,20.80
2018-12-10T21:23:57.900Z,20.43
2018-12-10T21:26:26.164Z,18.33
2018-12-10T21:28:54.364Z,22.50
2018-12-10T21:31:22.720Z,19.60
2018-12-10T21:33:50.941Z,19.70
2018-12-10T21:36:19.221Z,20.43
2018-12-10T21:38:47.508Z,19.33
2018-12-10T21:41:15.808Z,20.73
2018-12-10T21:43:44.013Z,19.00
2018-12-10T21:46:12.256Z,18.00
2018-12-10T21:48:40.501Z,19.50
2018-12-10T21:51:08.705Z,20.53
2018-12-10T21:53:36.972Z,19.37
2018-12-10T21:56:05.206Z,19.53
2018-12-10T21:58:33.481Z,20.00
2018-12-10T22:01:01.664Z,20.70
2018-12-10T22:03:29.884Z,20.43
2018-12-10T22:05:58.257Z,20.97
2018-12-10T22:08:26.476Z,20.83
2018-12-10T22:10:54.733Z,23.07
2018-12-10T22:13:23.040Z,20.37
2018-12-10T22:15:51.247Z,20.60
2018-12-10T22:18:19.546Z,19.80
2018-12-10T22:20:47.768Z,19.57
2018-12-10T22:23:16.104Z,20.77
2018-12-10T22:25:44.301Z,20.50
2018-12-10T22:28:12.557Z,19.13
2018-12-10T22:30:40.896Z,20.13
2018-12-10T22:33:09.108Z,21.20
2018-12-10T22:35:37.384Z,19.27
2018-12-10T22:38:05.630Z,19.37
2018-12-10T22:40:33.840Z,19.10
2018-12-10T22:43:02.096Z,19.47
2018-12-10T22:45:30.294Z,20.80
2018-12-10T22:47:58.502Z,19.10
2018-12-10T22:50:32.787Z,20.57
2018-12-10T22:53:01.119Z,20.60
2018-12-10T22:55:29.374Z,19.90
2018-12-10T22:57:57.603Z,20.17
2018-12-10T23:00:31.608Z,19.20
2018-12-10T23:02:59.815Z,19.87
2018-12-10T23:05:28.016Z,19.43
2018-12-10T23:07:56.254Z,19.00
2018-12-10T23:10:24.459Z,19.80
2018-12-10T23:12:52.657Z,20.40
2018-12-10T23:15:21.053Z,19.40
2018-12-10T23:17:49.249Z,19.33
2018-12-10T23:20:17.873Z,21.53
2018-12-10T23:22:46.186Z,19.03
2018-12-10T23:25:14.380Z,19.37
2018-12-10T23:27:42.635Z,18.97
2018-12-10T23:30:11.084Z,20.40
2018-12-10T23:32:39.348Z,18.70
2018-12-10T23:35:07.660Z,19.50
2018-12-10T23:37:35.888Z,19.47
2018-12-10T23:40:04.502Z,19.23
2018-12-10T23:42:33.112Z,20.43
2018-12-10T23:45:01.362Z,19.43
2018-12-10T23:47:29.584Z,19.97
2018-12-10T23:49:57.828Z,19.30
2018-12-10T23:52:26.132Z,19.17
2018-12-10T23:54:54.369Z,19.67
2018-12-10T23:57:22.570Z,18.23
2018-12-10T23:59:50.792Z,19.83
